sensor_id;sensor_type;location;lat;lon;timestamp;temperature;humidity
2913;DHT22;1466;48.778;9.166;2023-12-20T00:01:19;8.50;99.90
2913;DHT22;1466;48.778;9.166;2023-12-20T00:03:44;8.50;99.90
2913;DHT22;1466;48.778;9.166;2023-12-20T00:06:10;8.50;99.90
2913;DHT22;1466;48.778;9.166;2023-12-20T00:08:36;8.50;99.90
2913;DHT22;1466;48.778;9.166;2023-12-20T00:11:02;8.60;99.90
2913;DHT22;1466;48.778;9.166;2023-12-20T00:13:27;8.60;99.90
2913;DHT22;1466;48.778;9.166;2023-12-20T00:15:53;8.60;99.90
2913;DHT22;1466;48.778;9.166;2023-12-20T00:18:18;8.60;99.90
2913;DHT22;1466;48.778;9.166;2023-12-20T00:20:44;8.60;99.90
2913;DHT22;1466;48.778;9.166;2023-12-20T00:23:09;8.60;99.90
2913;DHT22;1466;48.778;9.166;2023-12-20T00:25:35;8.60;99.90
2913;DHT22;1466;48.778;9.166;2023-12-20T00:28:01;8.60;99.90
2913;DHT22;1466;48.778;9.166;2023-12-20T00:30:27;8.60;99.90
2913;DHT22;1466;48.778;9.166;2023-12-20T00:32:53;8.60;99.90
2913;DHT22;1466;48.778;9.166;2023-12-20T00:35:19;8.60;99.90
2913;DHT22;1466;48.778;9.166;2023-12-20T00:37:44;8.50;99.90
2913;DHT22;1466;48.778;9.166;2023-12-20T00:40:10;8.50;99.90
2913;DHT22;1466;48.778;9.166;2023-12-20T00:42:36;8.50;99.90
2913;DHT22;1466;48.778;9.166;2023-12-20T00:45:02;8.50;99.90
2913;DHT22;1466;48.778;9.166;2023-12-20T00:47:30;8.50;99.90
2913;DHT22;1466;48.778;9.166;2023-12-20T00:49:56;8.50;99.90
2913;DHT22;1466;48.778;9.166;2023-12-20T00:52:21;8.50;99.90
2913;DHT22;1466;48.778;9.166;2023-12-20T00:54:48;8.40;99.90
2913;DHT22;1466;48.778;9.166;2023-12-20T00:57:14;8.40;99.90
2913;DHT22;1466;48.778;9.166;2023-12-20T00:59:39;8.40;99.90
2913;DHT22;1466;48.778;9.166;2023-12-20T01:02:05;8.40;99.90
2913;DHT22;1466;48.778;9.166;2023-12-20T01:04:30;8.40;99.90
2913;DHT22;1466;48.778;9.166;2023-12-20T01:06:56;8.40;99.90
2913;DHT22;1466;48.778;9.166;2023-12-20T01:09:21;8.40;99.90
2913;DHT22;1466;48.778;9.166;2023-12-20T01:11:52;8.40;99.90
2913;DHT22;1466;48.778;9.166;2023-12-20T01:14:18;8.40;99.90
2913;DHT22;1466;48.778;9.166;2023-12-20T01:16:44;8.40;99.90
2913;DHT22;1466;48.778;9.166;2023-12-20T01:19:09;8.30;99.90
2913;DHT22;1466;48.778;9.166;2023-12-20T01:21:35;8.30;99.90
2913;DHT22;1466;48.778;9.166;2023-12-20T01:24:01;8.30;99.90
2913;DHT22;1466;48.778;9.166;2023-12-20T01:26:26;8.20;99.90
2913;DHT22;1466;48.778;9.166;2023-12-20T01:28:52;8.20;99.90
2913;DHT22;1466;48.778;9.166;2023-12-20T01:31:17;8.20;99.90
2913;DHT22;1466;48.778;9.166;2023-12-20T01:33:43;8.20;99.90
2913;DHT22;1466;48.778;9.166;2023-12-20T01:36:08;8.20;99.90
2913;DHT22;1466;48.778;9.166;2023-12-20T01:38:34;8.20;99.90
2913;DHT22;1466;48.778;9.166;2023-12-20T01:41:00;8.20;99.90
2913;DHT22;1466;48.778;9.166;2023-12-20T01:43:25;8.20;99.90
2913;DHT22;1466;48.778;9.166;2023-12-20T01:45:52;8.20;99.90
2913;DHT22;1466;48.778;9.166;2023-12-20T01:48:18;8.20;99.90
2913;DHT22;1466;48.778;9.166;2023-12-20T01:50:45;8.20;99.90
2913;DHT22;1466;48.778;9.166;2023-12-20T01:53:12;8.20;99.90
2913;DHT22;1466;48.778;9.166;2023-12-20T01:55:39;8.20;99.90
2913;DHT22;1466;48.778;9.166;2023-12-20T01:58:06;8.20;99.90
2913;DHT22;1466;48.778;9.166;2023-12-20T02:00:33;8.20;99.90
2913;DHT22;1466;48.778;9.166;2023-12-20T02:03:01;8.30;99.90
2913;DHT22;1466;48.778;9.166;2023-12-20T02:05:28;8.30;99.90
2913;DHT22;1466;48.778;9.166;2023-12-20T02:07:54;8.30;99.90
2913;DHT22;1466;48.778;9.166;2023-12-20T02:10:20;8.20;99.90
2913;DHT22;1466;48.778;9.166;2023-12-20T02:12:46;8.10;99.90
2913;DHT22;1466;48.778;9.166;2023-12-20T02:15:11;8.10;99.90
2913;DHT22;1466;48.778;9.166;2023-12-20T02:17:38;8.10;99.90
2913;DHT22;1466;48.778;9.166;2023-12-20T02:20:05;8.10;99.90
2913;DHT22;1466;48.778;9.166;2023-12-20T02:22:31;8.10;99.90
2913;DHT22;1466;48.778;9.166;2023-12-20T02:24:57;8.10;99.90
2913;DHT22;1466;48.778;9.166;2023-12-20T02:27:23;8.10;99.90
2913;DHT22;1466;48.778;9.166;2023-12-20T02:29:50;8.10;99.90
2913;DHT22;1466;48.778;9.166;2023-12-20T02:32:18;8.00;99.90
2913;DHT22;1466;48.778;9.166;2023-12-20T02:34:46;8.10;99.90
2913;DHT22;1466;48.778;9.166;2023-12-20T02:37:12;8.10;99.90
2913;DHT22;1466;48.778;9.166;2023-12-20T02:39:37;8.10;99.90
2913;DHT22;1466;48.778;9.166;2023-12-20T02:42:03;8.10;99.90
2913;DHT22;1466;48.778;9.166;2023-12-20T02:44:29;8.10;99.90
2913;DHT22;1466;48.778;9.166;2023-12-20T02:46:54;8.10;99.90
2913;DHT22;1466;48.778;9.166;2023-12-20T02:49:20;8.10;99.90
2913;DHT22;1466;48.778;9.166;2023-12-20T02:51:46;8.10;99.90
2913;DHT22;1466;48.778;9.166;2023-12-20T02:54:11;8.20;99.90
2913;DHT22;1466;48.778;9.166;2023-12-20T02:56:37;8.20;99.90
2913;DHT22;1466;48.778;9.166;2023-12-20T02:59:03;8.30;99.90
2913;DHT22;1466;48.778;9.166;2023-12-20T03:01:31;8.30;99.90
2913;DHT22;1466;48.778;9.166;2023-12-20T03:03:56;8.30;99.90
2913;DHT22;1466;48.778;9.166;2023-12-20T03:06:22;8.40;99.90
2913;DHT22;1466;48.778;9.166;2023-12-20T03:08:48;8.40;99.90
2913;DHT22;1466;48.778;9.166;2023-12-20T03:11:13;8.40;99.90
2913;DHT22;1466;48.778;9.166;2023-12-20T03:13:39;8.40;99.90
2913;DHT22;1466;48.778;9.166;2023-12-20T03:16:12;8.40;99.90
2913;DHT22;1466;48.778;9.166;2023-12-20T03:18:37;8.40;99.90
2913;DHT22;1466;48.778;9.166;2023-12-20T03:21:04;8.40;99.90
2913;DHT22;1466;48.778;9.166;2023-12-20T03:23:30;8.40;99.90
2913;DHT22;1466;48.778;9.166;2023-12-20T03:25:58;8.40;99.90
2913;DHT22;1466;48.778;9.166;2023-12-20T03:28:23;8.40;99.90
2913;DHT22;1466;48.778;9.166;2023-12-20T03:30:49;8.40;99.90
2913;DHT22;1466;48.778;9.166;2023-12-20T03:33:15;8.50;99.90
2913;DHT22;1466;48.778;9.166;2023-12-20T03:35:40;8.40;99.90
2913;DHT22;1466;48.778;9.166;2023-12-20T03:38:06;8.40;99.90
2913;DHT22;1466;48.778;9.166;2023-12-20T03:40:32;8.50;99.90
2913;DHT22;1466;48.778;9.166;2023-12-20T03:42:58;8.40;99.90
2913;DHT22;1466;48.778;9.166;2023-12-20T03:45:23;8.40;99.90
2913;DHT22;1466;48.778;9.166;2023-12-20T03:47:49;8.30;99.90
2913;DHT22;1466;48.778;9.166;2023-12-20T03:50:15;8.30;99.90
2913;DHT22;1466;48.778;9.166;2023-12-20T03:52:41;8.30;99.90
2913;DHT22;1466;48.778;9.166;2023-12-20T03:55:06;8.20;99.90
2913;DHT22;1466;48.778;9.166;2023-12-20T03:57:32;8.20;99.90
2913;DHT22;1466;48.778;9.166;2023-12-20T03:59:57;8.20;99.90
2913;DHT22;1466;48.778;9.166;2023-12-20T04:02:23;8.20;99.90
2913;DHT22;1466;48.778;9.166;2023-12-20T04:04:48;8.20;99.90
2913;DHT22;1466;48.778;9.166;2023-12-20T04:07:14;8.20;99.90
2913;DHT22;1466;48.778;9.166;2023-12-20T04:09:41;8.20;99.90
2913;DHT22;1466;48.778;9.166;2023-12-20T04:12:06;8.20;99.90
2913;DHT22;1466;48.778;9.166;2023-12-20T04:14:32;8.20;99.90
2913;DHT22;1466;48.778;9.166;2023-12-20T04:16:58;8.20;99.90
2913;DHT22;1466;48.778;9.166;2023-12-20T04:19:24;8.20;99.90
2913;DHT22;1466;48.778;9.166;2023-12-20T04:21:49;8.20;99.90
2913;DHT22;1466;48.778;9.166;2023-12-20T04:24:15;8.20;99.90
2913;DHT22;1466;48.778;9.166;2023-12-20T04:26:41;8.30;99.90
2913;DHT22;1466;48.778;9.166;2023-12-20T04:29:06;8.20;99.90
2913;DHT22;1466;48.778;9.166;2023-12-20T04:31:32;8.20;99.90
2913;DHT22;1466;48.778;9.166;2023-12-20T04:33:57;8.20;99.90
2913;DHT22;1466;48.778;9.166;2023-12-20T04:36:23;8.20;99.90
2913;DHT22;1466;48.778;9.166;2023-12-20T04:38:50;8.20;99.90
2913;DHT22;1466;48.778;9.166;2023-12-20T04:41:16;8.20;99.90
2913;DHT22;1466;48.778;9.166;2023-12-20T04:43:44;8.20;99.90
2913;DHT22;1466;48.778;9.166;2023-12-20T04:46:09;8.20;99.90
2913;DHT22;1466;48.778;9.166;2023-12-20T04:48:35;8.20;99.90
2913;DHT22;1466;48.778;9.166;2023-12-20T04:51:01;8.20;99.90
2913;DHT22;1466;48.778;9.166;2023-12-20T04:53:26;8.10;99.90
2913;DHT22;1466;48.778;9.166;2023-12-20T04:55:52;8.20;99.90
2913;DHT22;1466;48.778;9.166;2023-12-20T04:58:18;8.20;99.90
2913;DHT22;1466;48.778;9.166;2023-12-20T05:00:44;8.20;99.90
2913;DHT22;1466;48.778;9.166;2023-12-20T05:03:09;8.20;99.90
2913;DHT22;1466;48.778;9.166;2023-12-20T05:05:35;8.20;99.90
2913;DHT22;1466;48.778;9.166;2023-12-20T05:08:01;8.20;99.90
2913;DHT22;1466;48.778;9.166;2023-12-20T05:10:27;8.20;99.90
2913;DHT22;1466;48.778;9.166;2023-12-20T05:12:53;8.20;99.90
2913;DHT22;1466;48.778;9.166;2023-12-20T05:15:19;8.20;99.90
2913;DHT22;1466;48.778;9.166;2023-12-20T05:17:44;8.20;99.90
2913;DHT22;1466;48.778;9.166;2023-12-20T05:20:10;8.20;99.90
2913;DHT22;1466;48.778;9.166;2023-12-20T05:22:35;8.20;99.90
2913;DHT22;1466;48.778;9.166;2023-12-20T05:25:01;8.20;99.90
2913;DHT22;1466;48.778;9.166;2023-12-20T05:27:27;8.20;99.90
2913;DHT22;1466;48.778;9.166;2023-12-20T05:29:52;8.10;99.90
2913;DHT22;1466;48.778;9.166;2023-12-20T05:32:18;8.10;99.90
2913;DHT22;1466;48.778;9.166;2023-12-20T05:34:45;8.10;99.90
2913;DHT22;1466;48.778;9.166;2023-12-20T05:37:11;8.10;99.90
2913;DHT22;1466;48.778;9.166;2023-12-20T05:39:37;8.10;99.90
2913;DHT22;1466;48.778;9.166;2023-12-20T05:42:02;8.10;99.90
2913;DHT22;1466;48.778;9.166;2023-12-20T05:44:28;8.10;99.90
2913;DHT22;1466;48.778;9.166;2023-12-20T05:46:53;8.10;99.90
2913;DHT22;1466;48.778;9.166;2023-12-20T05:49:19;8.20;99.90
2913;DHT22;1466;48.778;9.166;2023-12-20T05:51:44;8.20;99.90
2913;DHT22;1466;48.778;9.166;2023-12-20T05:54:10;8.20;99.90
2913;DHT22;1466;48.778;9.166;2023-12-20T05:56:36;8.20;99.90
2913;DHT22;1466;48.778;9.166;2023-12-20T05:59:01;8.20;99.90
2913;DHT22;1466;48.778;9.166;2023-12-20T06:01:27;8.10;99.90
2913;DHT22;1466;48.778;9.166;2023-12-20T06:03:52;8.10;99.90
2913;DHT22;1466;48.778;9.166;2023-12-20T06:06:18;8.10;99.90
2913;DHT22;1466;48.778;9.166;2023-12-20T06:08:43;8.10;99.90
2913;DHT22;1466;48.778;9.166;2023-12-20T06:11:09;8.20;99.90
2913;DHT22;1466;48.778;9.166;2023-12-20T06:13:35;8.20;99.90
2913;DHT22;1466;48.778;9.166;2023-12-20T06:16:01;8.20;99.90
2913;DHT22;1466;48.778;9.166;2023-12-20T06:18:26;8.10;99.90
2913;DHT22;1466;48.778;9.166;2023-12-20T06:20:52;8.10;99.90
2913;DHT22;1466;48.778;9.166;2023-12-20T06:23:18;8.10;99.90
2913;DHT22;1466;48.778;9.166;2023-12-20T06:25:44;8.10;99.90
2913;DHT22;1466;48.778;9.166;2023-12-20T06:28:09;8.20;99.90
2913;DHT22;1466;48.778;9.166;2023-12-20T06:30:36;8.20;99.90
2913;DHT22;1466;48.778;9.166;2023-12-20T06:33:01;8.20;99.90
2913;DHT22;1466;48.778;9.166;2023-12-20T06:35:27;8.20;99.90
2913;DHT22;1466;48.778;9.166;2023-12-20T06:37:52;8.20;99.90
2913;DHT22;1466;48.778;9.166;2023-12-20T06:40:18;8.20;99.90
2913;DHT22;1466;48.778;9.166;2023-12-20T06:42:44;8.20;99.90
2913;DHT22;1466;48.778;9.166;2023-12-20T06:45:10;8.20;99.90
2913;DHT22;1466;48.778;9.166;2023-12-20T06:47:35;8.20;99.90
2913;DHT22;1466;48.778;9.166;2023-12-20T06:50:01;8.20;99.90
2913;DHT22;1466;48.778;9.166;2023-12-20T06:52:26;8.20;99.90
2913;DHT22;1466;48.778;9.166;2023-12-20T06:54:52;8.20;99.90
2913;DHT22;1466;48.778;9.166;2023-12-20T06:57:18;8.20;99.90
2913;DHT22;1466;48.778;9.166;2023-12-20T06:59:45;8.20;99.90
2913;DHT22;1466;48.778;9.166;2023-12-20T07:02:10;8.30;99.90
2913;DHT22;1466;48.778;9.166;2023-12-20T07:04:40;8.30;99.90
2913;DHT22;1466;48.778;9.166;2023-12-20T07:07:06;8.40;99.90
2913;DHT22;1466;48.778;9.166;2023-12-20T07:09:32;8.40;99.90
2913;DHT22;1466;48.778;9.166;2023-12-20T07:11:58;8.40;99.90
2913;DHT22;1466;48.778;9.166;2023-12-20T07:14:24;8.40;99.90
2913;DHT22;1466;48.778;9.166;2023-12-20T07:16:49;8.40;99.90
2913;DHT22;1466;48.778;9.166;2023-12-20T07:19:15;8.40;99.90
2913;DHT22;1466;48.778;9.166;2023-12-20T07:21:40;8.40;99.90
2913;DHT22;1466;48.778;9.166;2023-12-20T07:24:06;8.50;99.90
2913;DHT22;1466;48.778;9.166;2023-12-20T07:26:32;8.50;99.90
2913;DHT22;1466;48.778;9.166;2023-12-20T07:28:57;8.50;99.90
2913;DHT22;1466;48.778;9.166;2023-12-20T07:31:24;8.50;99.90
2913;DHT22;1466;48.778;9.166;2023-12-20T07:33:49;8.40;99.90
2913;DHT22;1466;48.778;9.166;2023-12-20T07:36:15;8.40;99.90
2913;DHT22;1466;48.778;9.166;2023-12-20T07:38:40;8.30;99.90
2913;DHT22;1466;48.778;9.166;2023-12-20T07:41:12;8.20;99.90
2913;DHT22;1466;48.778;9.166;2023-12-20T07:43:38;8.00;99.90
2913;DHT22;1466;48.778;9.166;2023-12-20T07:46:07;8.10;99.90
2913;DHT22;1466;48.778;9.166;2023-12-20T07:48:36;7.90;99.90
2913;DHT22;1466;48.778;9.166;2023-12-20T07:51:03;8.00;99.90
2913;DHT22;1466;48.778;9.166;2023-12-20T07:53:29;8.00;99.90
2913;DHT22;1466;48.778;9.166;2023-12-20T07:55:55;8.00;99.90
2913;DHT22;1466;48.778;9.166;2023-12-20T07:58:21;8.00;99.90
2913;DHT22;1466;48.778;9.166;2023-12-20T08:00:47;8.00;99.90
2913;DHT22;1466;48.778;9.166;2023-12-20T08:03:13;7.90;99.90
2913;DHT22;1466;48.778;9.166;2023-12-20T08:05:38;7.80;99.90
2913;DHT22;1466;48.778;9.166;2023-12-20T08:08:06;7.80;99.90
2913;DHT22;1466;48.778;9.166;2023-12-20T08:10:32;7.80;99.90
2913;DHT22;1466;48.778;9.166;2023-12-20T08:12:57;7.80;99.90
2913;DHT22;1466;48.778;9.166;2023-12-20T08:15:23;7.80;99.90
2913;DHT22;1466;48.778;9.166;2023-12-20T08:17:49;7.80;99.90
2913;DHT22;1466;48.778;9.166;2023-12-20T08:20:16;7.80;99.90
2913;DHT22;1466;48.778;9.166;2023-12-20T08:22:42;7.90;99.90
2913;DHT22;1466;48.778;9.166;2023-12-20T08:25:08;7.90;99.90
2913;DHT22;1466;48.778;9.166;2023-12-20T08:27:38;7.90;99.90
2913;DHT22;1466;48.778;9.166;2023-12-20T08:30:04;7.80;99.90
2913;DHT22;1466;48.778;9.166;2023-12-20T08:32:30;7.80;99.90
2913;DHT22;1466;48.778;9.166;2023-12-20T08:34:55;7.70;99.90
2913;DHT22;1466;48.778;9.166;2023-12-20T08:37:21;7.70;99.90
2913;DHT22;1466;48.778;9.166;2023-12-20T08:39:46;7.80;99.90
2913;DHT22;1466;48.778;9.166;2023-12-20T08:42:12;7.90;99.90
2913;DHT22;1466;48.778;9.166;2023-12-20T08:44:37;7.90;99.90
2913;DHT22;1466;48.778;9.166;2023-12-20T08:47:03;7.70;99.90
2913;DHT22;1466;48.778;9.166;2023-12-20T08:49:29;7.70;99.90
2913;DHT22;1466;48.778;9.166;2023-12-20T08:51:54;7.60;99.90
2913;DHT22;1466;48.778;9.166;2023-12-20T08:54:20;7.60;99.90
2913;DHT22;1466;48.778;9.166;2023-12-20T08:56:46;7.70;99.90
2913;DHT22;1466;48.778;9.166;2023-12-20T08:59:11;7.70;99.90
2913;DHT22;1466;48.778;9.166;2023-12-20T09:01:37;7.60;99.90
2913;DHT22;1466;48.778;9.166;2023-12-20T09:04:03;7.60;99.90
2913;DHT22;1466;48.778;9.166;2023-12-20T09:06:29;7.60;99.90
2913;DHT22;1466;48.778;9.166;2023-12-20T09:08:54;7.70;99.90
2913;DHT22;1466;48.778;9.166;2023-12-20T09:11:20;7.70;99.90
2913;DHT22;1466;48.778;9.166;2023-12-20T09:13:45;7.70;99.90
2913;DHT22;1466;48.778;9.166;2023-12-20T09:16:11;7.70;99.90
2913;DHT22;1466;48.778;9.166;2023-12-20T09:18:38;7.80;99.90
2913;DHT22;1466;48.778;9.166;2023-12-20T09:21:04;7.90;99.90
2913;DHT22;1466;48.778;9.166;2023-12-20T09:23:29;7.90;99.90
2913;DHT22;1466;48.778;9.166;2023-12-20T09:25:55;7.80;99.90
2913;DHT22;1466;48.778;9.166;2023-12-20T09:28:20;7.80;99.90
2913;DHT22;1466;48.778;9.166;2023-12-20T09:30:46;7.90;99.90
2913;DHT22;1466;48.778;9.166;2023-12-20T09:33:13;7.90;99.90
2913;DHT22;1466;48.778;9.166;2023-12-20T09:35:39;7.80;99.90
2913;DHT22;1466;48.778;9.166;2023-12-20T09:38:05;7.80;99.90
2913;DHT22;1466;48.778;9.166;2023-12-20T09:40:35;7.80;99.90
2913;DHT22;1466;48.778;9.166;2023-12-20T09:43:04;7.80;99.90
2913;DHT22;1466;48.778;9.166;2023-12-20T09:45:34;7.80;99.90
2913;DHT22;1466;48.778;9.166;2023-12-20T09:48:00;7.90;99.90
2913;DHT22;1466;48.778;9.166;2023-12-20T09:50:26;7.90;99.90
2913;DHT22;1466;48.778;9.166;2023-12-20T09:52:53;8.00;99.90
2913;DHT22;1466;48.778;9.166;2023-12-20T09:55:19;8.00;99.90
2913;DHT22;1466;48.778;9.166;2023-12-20T09:57:46;8.00;99.90
2913;DHT22;1466;48.778;9.166;2023-12-20T10:00:12;8.00;99.90
2913;DHT22;1466;48.778;9.166;2023-12-20T10:02:45;8.00;99.90
2913;DHT22;1466;48.778;9.166;2023-12-20T10:05:17;8.10;99.90
2913;DHT22;1466;48.778;9.166;2023-12-20T10:07:45;8.10;99.90
2913;DHT22;1466;48.778;9.166;2023-12-20T10:10:13;8.20;99.90
2913;DHT22;1466;48.778;9.166;2023-12-20T10:12:39;8.30;99.90
2913;DHT22;1466;48.778;9.166;2023-12-20T10:15:05;8.40;99.90
2913;DHT22;1466;48.778;9.166;2023-12-20T10:17:31;8.50;99.90
2913;DHT22;1466;48.778;9.166;2023-12-20T10:19:57;8.50;99.90
2913;DHT22;1466;48.778;9.166;2023-12-20T10:22:23;8.50;99.90
2913;DHT22;1466;48.778;9.166;2023-12-20T10:24:49;8.60;99.90
2913;DHT22;1466;48.778;9.166;2023-12-20T10:27:18;8.60;99.90
2913;DHT22;1466;48.778;9.166;2023-12-20T10:29:44;8.60;99.90
2913;DHT22;1466;48.778;9.166;2023-12-20T10:32:30;8.60;99.90
2913;DHT22;1466;48.778;9.166;2023-12-20T10:34:57;8.60;99.90
2913;DHT22;1466;48.778;9.166;2023-12-20T10:37:22;8.50;99.90
2913;DHT22;1466;48.778;9.166;2023-12-20T10:39:53;8.40;99.90
2913;DHT22;1466;48.778;9.166;2023-12-20T10:42:22;8.30;99.90
2913;DHT22;1466;48.778;9.166;2023-12-20T10:44:49;8.40;99.90
2913;DHT22;1466;48.778;9.166;2023-12-20T10:47:15;8.30;99.90
2913;DHT22;1466;48.778;9.166;2023-12-20T10:49:41;8.30;99.90
2913;DHT22;1466;48.778;9.166;2023-12-20T10:52:08;8.30;99.90
2913;DHT22;1466;48.778;9.166;2023-12-20T10:54:34;8.40;99.90
2913;DHT22;1466;48.778;9.166;2023-12-20T10:57:00;8.40;99.90
2913;DHT22;1466;48.778;9.166;2023-12-20T10:59:29;8.40;99.90
2913;DHT22;1466;48.778;9.166;2023-12-20T11:01:59;8.40;99.90
2913;DHT22;1466;48.778;9.166;2023-12-20T11:12:44;8.30;99.90
2913;DHT22;1466;48.778;9.166;2023-12-20T11:15:12;8.40;99.90
2913;DHT22;1466;48.778;9.166;2023-12-20T11:17:39;8.40;99.90
2913;DHT22;1466;48.778;9.166;2023-12-20T11:20:06;8.40;99.90
2913;DHT22;1466;48.778;9.166;2023-12-20T11:22:32;8.40;99.90
2913;DHT22;1466;48.778;9.166;2023-12-20T11:25:04;8.40;99.90
2913;DHT22;1466;48.778;9.166;2023-12-20T11:27:30;8.30;99.90
2913;DHT22;1466;48.778;9.166;2023-12-20T11:29:58;8.30;99.90
2913;DHT22;1466;48.778;9.166;2023-12-20T11:35:17;8.20;99.90
2913;DHT22;1466;48.778;9.166;2023-12-20T11:37:43;8.20;99.90
2913;DHT22;1466;48.778;9.166;2023-12-20T11:40:12;8.20;99.90
2913;DHT22;1466;48.778;9.166;2023-12-20T11:42:38;8.20;99.90
2913;DHT22;1466;48.778;9.166;2023-12-20T11:45:05;8.30;99.90
2913;DHT22;1466;48.778;9.166;2023-12-20T11:47:31;8.30;99.70
2913;DHT22;1466;48.778;9.166;2023-12-20T11:49:57;8.20;99.40
2913;DHT22;1466;48.778;9.166;2023-12-20T11:52:22;8.20;99.60
2913;DHT22;1466;48.778;9.166;2023-12-20T11:54:48;8.20;99.60
2913;DHT22;1466;48.778;9.166;2023-12-20T11:57:14;8.20;99.70
2913;DHT22;1466;48.778;9.166;2023-12-20T11:59:39;8.20;99.70
2913;DHT22;1466;48.778;9.166;2023-12-20T12:02:05;8.20;99.60
2913;DHT22;1466;48.778;9.166;2023-12-20T12:04:31;8.20;99.40
2913;DHT22;1466;48.778;9.166;2023-12-20T12:06:57;8.20;99.00
2913;DHT22;1466;48.778;9.166;2023-12-20T12:09:22;8.10;99.00
2913;DHT22;1466;48.778;9.166;2023-12-20T12:11:49;8.20;99.30
2913;DHT22;1466;48.778;9.166;2023-12-20T12:14:14;8.30;99.20
2913;DHT22;1466;48.778;9.166;2023-12-20T12:16:42;8.30;99.20
2913;DHT22;1466;48.778;9.166;2023-12-20T12:19:20;8.40;99.30
2913;DHT22;1466;48.778;9.166;2023-12-20T12:21:46;8.40;99.30
2913;DHT22;1466;48.778;9.166;2023-12-20T12:24:12;8.50;99.10
2913;DHT22;1466;48.778;9.166;2023-12-20T12:26:38;8.60;99.10
2913;DHT22;1466;48.778;9.166;2023-12-20T12:29:03;8.60;98.90
2913;DHT22;1466;48.778;9.166;2023-12-20T12:31:30;8.70;98.90
2913;DHT22;1466;48.778;9.166;2023-12-20T12:33:56;8.70;98.70
2913;DHT22;1466;48.778;9.166;2023-12-20T12:36:21;8.80;98.90
2913;DHT22;1466;48.778;9.166;2023-12-20T12:38:47;8.80;98.80
2913;DHT22;1466;48.778;9.166;2023-12-20T12:41:13;8.80;98.90
2913;DHT22;1466;48.778;9.166;2023-12-20T12:43:40;8.80;98.80
2913;DHT22;1466;48.778;9.166;2023-12-20T12:46:06;8.80;98.60
2913;DHT22;1466;48.778;9.166;2023-12-20T12:48:32;8.80;98.40
2913;DHT22;1466;48.778;9.166;2023-12-20T12:50:59;8.80;98.40
2913;DHT22;1466;48.778;9.166;2023-12-20T12:53:25;8.80;98.40
2913;DHT22;1466;48.778;9.166;2023-12-20T12:55:52;8.80;98.30
2913;DHT22;1466;48.778;9.166;2023-12-20T12:58:18;8.80;98.50
2913;DHT22;1466;48.778;9.166;2023-12-20T13:00:44;8.80;98.60
2913;DHT22;1466;48.778;9.166;2023-12-20T13:03:09;8.80;98.20
2913;DHT22;1466;48.778;9.166;2023-12-20T13:05:35;8.80;98.20
2913;DHT22;1466;48.778;9.166;2023-12-20T13:08:00;8.90;98.20
2913;DHT22;1466;48.778;9.166;2023-12-20T13:10:26;8.90;98.00
2913;DHT22;1466;48.778;9.166;2023-12-20T13:12:51;8.80;98.00
2913;DHT22;1466;48.778;9.166;2023-12-20T13:15:17;8.80;98.10
2913;DHT22;1466;48.778;9.166;2023-12-20T13:17:42;8.80;97.60
2913;DHT22;1466;48.778;9.166;2023-12-20T13:20:08;8.80;97.80
2913;DHT22;1466;48.778;9.166;2023-12-20T13:22:34;8.90;97.80
2913;DHT22;1466;48.778;9.166;2023-12-20T13:24:59;8.90;97.80
2913;DHT22;1466;48.778;9.166;2023-12-20T13:27:25;8.90;97.90
2913;DHT22;1466;48.778;9.166;2023-12-20T13:29:50;9.00;98.00
2913;DHT22;1466;48.778;9.166;2023-12-20T13:32:16;9.00;97.80
2913;DHT22;1466;48.778;9.166;2023-12-20T13:34:41;9.00;97.70
2913;DHT22;1466;48.778;9.166;2023-12-20T13:37:07;9.10;97.80
2913;DHT22;1466;48.778;9.166;2023-12-20T13:39:33;9.10;97.60
2913;DHT22;1466;48.778;9.166;2023-12-20T13:41:58;9.10;97.10
2913;DHT22;1466;48.778;9.166;2023-12-20T13:44:24;9.10;97.20
2913;DHT22;1466;48.778;9.166;2023-12-20T13:46:50;9.00;97.00
2913;DHT22;1466;48.778;9.166;2023-12-20T13:49:15;8.90;97.10
2913;DHT22;1466;48.778;9.166;2023-12-20T13:51:41;8.80;97.10
2913;DHT22;1466;48.778;9.166;2023-12-20T13:54:06;8.70;97.20
2913;DHT22;1466;48.778;9.166;2023-12-20T13:56:32;8.70;97.40
2913;DHT22;1466;48.778;9.166;2023-12-20T13:58:58;8.60;97.90
2913;DHT22;1466;48.778;9.166;2023-12-20T14:01:25;8.60;97.60
2913;DHT22;1466;48.778;9.166;2023-12-20T14:03:52;8.50;97.60
2913;DHT22;1466;48.778;9.166;2023-12-20T14:06:17;8.50;97.90
2913;DHT22;1466;48.778;9.166;2023-12-20T14:08:43;8.40;98.00
2913;DHT22;1466;48.778;9.166;2023-12-20T14:11:09;8.50;98.20
2913;DHT22;1466;48.778;9.166;2023-12-20T14:13:35;8.60;98.20
2913;DHT22;1466;48.778;9.166;2023-12-20T14:16:00;8.60;98.20
2913;DHT22;1466;48.778;9.166;2023-12-20T14:18:27;8.60;98.20
2913;DHT22;1466;48.778;9.166;2023-12-20T14:20:53;8.60;98.30
2913;DHT22;1466;48.778;9.166;2023-12-20T14:23:19;8.60;98.50
2913;DHT22;1466;48.778;9.166;2023-12-20T14:25:44;8.60;98.60
2913;DHT22;1466;48.778;9.166;2023-12-20T14:28:10;8.50;98.80
2913;DHT22;1466;48.778;9.166;2023-12-20T14:30:39;8.40;98.90
2913;DHT22;1466;48.778;9.166;2023-12-20T14:33:04;8.40;98.90
2913;DHT22;1466;48.778;9.166;2023-12-20T14:35:30;8.30;99.00
2913;DHT22;1466;48.778;9.166;2023-12-20T14:37:56;8.40;99.50
2913;DHT22;1466;48.778;9.166;2023-12-20T14:40:22;8.40;99.60
2913;DHT22;1466;48.778;9.166;2023-12-20T14:42:48;8.40;99.90
2913;DHT22;1466;48.778;9.166;2023-12-20T14:45:14;8.40;99.90
2913;DHT22;1466;48.778;9.166;2023-12-20T14:47:41;8.30;99.90
2913;DHT22;1466;48.778;9.166;2023-12-20T14:50:07;8.30;99.90
2913;DHT22;1466;48.778;9.166;2023-12-20T14:52:33;8.30;99.90
2913;DHT22;1466;48.778;9.166;2023-12-20T14:55:02;8.20;99.90
2913;DHT22;1466;48.778;9.166;2023-12-20T14:57:28;8.20;99.90
2913;DHT22;1466;48.778;9.166;2023-12-20T14:59:55;8.20;99.90
2913;DHT22;1466;48.778;9.166;2023-12-20T15:02:21;8.10;99.90
2913;DHT22;1466;48.778;9.166;2023-12-20T15:04:46;8.10;99.90
2913;DHT22;1466;48.778;9.166;2023-12-20T15:07:12;8.20;99.90
2913;DHT22;1466;48.778;9.166;2023-12-20T15:09:37;8.10;99.90
2913;DHT22;1466;48.778;9.166;2023-12-20T15:12:04;8.20;99.90
2913;DHT22;1466;48.778;9.166;2023-12-20T15:14:30;8.20;99.90
2913;DHT22;1466;48.778;9.166;2023-12-20T15:16:55;8.20;99.90
2913;DHT22;1466;48.778;9.166;2023-12-20T15:19:21;8.20;99.90
2913;DHT22;1466;48.778;9.166;2023-12-20T15:21:47;8.20;99.90
2913;DHT22;1466;48.778;9.166;2023-12-20T15:24:13;8.20;99.90
2913;DHT22;1466;48.778;9.166;2023-12-20T15:26:41;8.10;99.90
2913;DHT22;1466;48.778;9.166;2023-12-20T15:29:07;8.00;99.90
2913;DHT22;1466;48.778;9.166;2023-12-20T15:31:34;8.00;99.90
2913;DHT22;1466;48.778;9.166;2023-12-20T15:34:00;8.10;99.90
2913;DHT22;1466;48.778;9.166;2023-12-20T15:36:26;8.00;99.90
2913;DHT22;1466;48.778;9.166;2023-12-20T15:38:51;8.10;99.90
2913;DHT22;1466;48.778;9.166;2023-12-20T15:41:23;8.10;99.90
2913;DHT22;1466;48.778;9.166;2023-12-20T15:43:51;8.10;99.90
2913;DHT22;1466;48.778;9.166;2023-12-20T15:46:17;8.10;99.90
2913;DHT22;1466;48.778;9.166;2023-12-20T15:48:42;8.00;99.90
2913;DHT22;1466;48.778;9.166;2023-12-20T15:51:08;8.10;99.90
2913;DHT22;1466;48.778;9.166;2023-12-20T15:53:35;8.10;99.90
2913;DHT22;1466;48.778;9.166;2023-12-20T15:56:01;8.10;99.90
2913;DHT22;1466;48.778;9.166;2023-12-20T15:58:27;8.00;99.90
2913;DHT22;1466;48.778;9.166;2023-12-20T16:00:53;7.90;99.90
2913;DHT22;1466;48.778;9.166;2023-12-20T16:03:19;7.90;99.90
2913;DHT22;1466;48.778;9.166;2023-12-20T16:05:44;8.00;99.90
2913;DHT22;1466;48.778;9.166;2023-12-20T16:08:10;7.90;99.90
2913;DHT22;1466;48.778;9.166;2023-12-20T16:10:35;7.90;99.90
2913;DHT22;1466;48.778;9.166;2023-12-20T16:13:01;7.90;99.90
2913;DHT22;1466;48.778;9.166;2023-12-20T16:15:26;8.00;99.90
2913;DHT22;1466;48.778;9.166;2023-12-20T16:17:52;8.00;99.90
2913;DHT22;1466;48.778;9.166;2023-12-20T16:20:17;7.90;99.90